AFL1140 UUEE-URSS
Flight info
| Callsign | AFL1140 |
|---|---|
| Flight time | N/A |
| Altitude | 33000 |
| Route | TOGMO3J TOGMO M56 ABAGI B105 NATIT DCT MOLED DCT LIDUS G242 ZG DCT ITAKA DCT OBBUD DCT AMKOL DCT GOTIK DCT MEMZA DCT VENFO DCT BINOL BINOL1L |
| Aircraft | A320/M-SDE3FGHIRWY/LB1 |
Departure
| Time | N/A |
|---|---|
| Airport | Sheremetyevo International Airport (UUEE) |
Arrival
| Time | 2026-05-06 18:28 |
|---|---|
| Airport | Sochi International Airport (URSS) |
| Time | Latitude | Longitude | Altitude | Speed | Heading |
|---|---|---|---|---|---|
| 2026-05-06 16:11 | 51.44883 | 44.27175 | 32902 ft | 455 kts | 156° |
| 2026-05-06 16:12 | 51.39067 | 44.31164 | 32905 ft | 455 kts | 156° |
| 2026-05-06 16:12 | 51.33244 | 44.35151 | 32903 ft | 455 kts | 156° |
| 2026-05-06 16:13 | 51.27421 | 44.39127 | 32913 ft | 455 kts | 156° |
| 2026-05-06 16:13 | 51.21605 | 44.43072 | 32914 ft | 454 kts | 156° |
| 2026-05-06 16:14 | 51.15630 | 44.46096 | 32916 ft | 455 kts | 170° |
| 2026-05-06 16:14 | 51.09307 | 44.46290 | 32914 ft | 456 kts | 182° |
| 2026-05-06 16:15 | 51.02965 | 44.45682 | 32910 ft | 456 kts | 182° |
| 2026-05-06 16:15 | 50.96628 | 44.45099 | 32919 ft | 456 kts | 182° |
| 2026-05-06 16:16 | 50.90298 | 44.44512 | 32928 ft | 455 kts | 182° |
| 2026-05-06 16:16 | 50.83968 | 44.43919 | 32926 ft | 455 kts | 182° |
| 2026-05-06 16:17 | 50.77652 | 44.43332 | 32923 ft | 455 kts | 182° |
| 2026-05-06 16:17 | 50.71336 | 44.42744 | 32923 ft | 454 kts | 182° |
| 2026-05-06 16:18 | 50.58517 | 44.41556 | 32937 ft | 453 kts | 182° |
| 2026-05-06 16:19 | 50.52231 | 44.40984 | 32934 ft | 452 kts | 182° |
| 2026-05-06 16:19 | 50.45949 | 44.40414 | 32934 ft | 452 kts | 182° |
| 2026-05-06 16:20 | 50.39673 | 44.39840 | 32933 ft | 452 kts | 182° |
| 2026-05-06 16:20 | 50.33397 | 44.39266 | 32941 ft | 452 kts | 182° |
| 2026-05-06 16:21 | 50.27116 | 44.38700 | 32937 ft | 452 kts | 181° |
| 2026-05-06 16:21 | 50.20835 | 44.38140 | 32925 ft | 452 kts | 181° |
| 2026-05-06 16:22 | 50.14542 | 44.37575 | 32918 ft | 453 kts | 182° |
| 2026-05-06 16:22 | 50.08245 | 44.36998 | 32924 ft | 453 kts | 182° |
| 2026-05-06 16:23 | 50.01945 | 44.36420 | 32921 ft | 453 kts | 182° |
| 2026-05-06 16:23 | 49.95642 | 44.35852 | 32932 ft | 454 kts | 181° |
| 2026-05-06 16:24 | 49.89334 | 44.35291 | 32926 ft | 454 kts | 181° |
| 2026-05-06 16:24 | 49.83063 | 44.34740 | 32926 ft | 454 kts | 181° |
| 2026-05-06 16:25 | 49.76744 | 44.34180 | 32926 ft | 455 kts | 181° |
| 2026-05-06 16:25 | 49.70428 | 44.33621 | 32933 ft | 455 kts | 181° |
| 2026-05-06 16:26 | 49.64105 | 44.33054 | 32930 ft | 455 kts | 181° |
| 2026-05-06 16:26 | 49.57801 | 44.33025 | 32936 ft | 452 kts | 171° |
| 2026-05-06 16:27 | 49.51792 | 44.35617 | 32930 ft | 448 kts | 155° |
| 2026-05-06 16:27 | 49.46034 | 44.39323 | 32934 ft | 449 kts | 156° |
| 2026-05-06 16:28 | 49.40264 | 44.42979 | 32946 ft | 449 kts | 156° |
| 2026-05-06 16:28 | 49.34520 | 44.46601 | 32922 ft | 450 kts | 156° |
| 2026-05-06 16:29 | 49.28723 | 44.50259 | 32933 ft | 451 kts | 155° |
| 2026-05-06 16:29 | 49.22924 | 44.53927 | 32937 ft | 451 kts | 155° |
| 2026-05-06 16:30 | 49.18102 | 44.56957 | 32941 ft | 450 kts | 155° |
| 2026-05-06 16:30 | 49.11320 | 44.61201 | 32939 ft | 451 kts | 155° |
| 2026-05-06 16:31 | 49.05502 | 44.64841 | 32935 ft | 452 kts | 155° |
| 2026-05-06 16:31 | 48.99681 | 44.68480 | 32930 ft | 453 kts | 155° |
| 2026-05-06 16:32 | 48.93845 | 44.72124 | 32932 ft | 453 kts | 155° |
| 2026-05-06 16:32 | 48.88009 | 44.75743 | 32947 ft | 453 kts | 155° |
| 2026-05-06 16:33 | 48.82267 | 44.79631 | 32943 ft | 450 kts | 148° |
| 2026-05-06 16:34 | 48.74133 | 44.86665 | 32934 ft | 450 kts | 148° |
| 2026-05-06 16:34 | 48.68679 | 44.91340 | 32941 ft | 450 kts | 148° |
| 2026-05-06 16:35 | 48.63228 | 44.95997 | 32934 ft | 450 kts | 148° |
| 2026-05-06 16:35 | 48.57779 | 45.00647 | 32932 ft | 450 kts | 148° |
| 2026-05-06 16:36 | 48.52329 | 45.05281 | 32929 ft | 449 kts | 148° |
| 2026-05-06 16:36 | 48.46883 | 45.09906 | 32934 ft | 449 kts | 148° |
| 2026-05-06 16:37 | 48.41435 | 45.14530 | 32924 ft | 449 kts | 148° |
| 2026-05-06 16:37 | 48.36018 | 45.19109 | 32918 ft | 449 kts | 148° |
| 2026-05-06 16:38 | 48.30563 | 45.23707 | 32922 ft | 450 kts | 148° |
| 2026-05-06 16:38 | 48.25105 | 45.28298 | 32925 ft | 450 kts | 148° |
| 2026-05-06 16:39 | 48.19636 | 45.32889 | 32917 ft | 450 kts | 148° |
| 2026-05-06 16:39 | 48.14162 | 45.37476 | 32919 ft | 450 kts | 148° |
| 2026-05-06 16:40 | 48.08687 | 45.42047 | 32913 ft | 450 kts | 148° |
| 2026-05-06 16:40 | 48.03246 | 45.46575 | 32910 ft | 451 kts | 148° |
| 2026-05-06 16:41 | 47.97760 | 45.51131 | 32902 ft | 451 kts | 148° |
| 2026-05-06 16:41 | 47.92268 | 45.55686 | 32902 ft | 452 kts | 148° |
| 2026-05-06 16:42 | 47.86769 | 45.60237 | 32906 ft | 452 kts | 148° |
| 2026-05-06 16:42 | 47.81264 | 45.64773 | 32906 ft | 453 kts | 148° |
| 2026-05-06 16:43 | 47.75746 | 45.69302 | 32900 ft | 453 kts | 148° |
| 2026-05-06 16:43 | 47.70232 | 45.73831 | 32898 ft | 453 kts | 148° |
| 2026-05-06 16:44 | 47.64712 | 45.78362 | 32899 ft | 453 kts | 149° |
| 2026-05-06 16:44 | 47.59190 | 45.82875 | 32891 ft | 453 kts | 149° |
| 2026-05-06 16:45 | 47.53653 | 45.87380 | 32883 ft | 454 kts | 149° |
| 2026-05-06 16:45 | 47.48153 | 45.91854 | 32886 ft | 454 kts | 149° |
| 2026-05-06 16:46 | 47.42611 | 45.96356 | 32886 ft | 454 kts | 149° |
| 2026-05-06 16:46 | 47.37068 | 46.00828 | 32888 ft | 454 kts | 149° |
| 2026-05-06 16:47 | 47.32449 | 46.04544 | 32891 ft | 454 kts | 149° |
| 2026-05-06 16:47 | 47.26894 | 46.09016 | 32894 ft | 454 kts | 149° |
| 2026-05-06 16:48 | 47.21359 | 46.13467 | 32902 ft | 454 kts | 149° |
| 2026-05-06 16:48 | 47.15794 | 46.17927 | 32896 ft | 454 kts | 149° |
| 2026-05-06 16:49 | 47.10280 | 46.22328 | 32900 ft | 454 kts | 149° |
| 2026-05-06 16:49 | 47.05155 | 46.27595 | 32895 ft | 449 kts | 133° |
| 2026-05-06 16:50 | 47.01350 | 46.34750 | 32897 ft | 445 kts | 120° |
| 2026-05-06 16:50 | 46.98041 | 46.42415 | 32895 ft | 445 kts | 120° |
| 2026-05-06 16:51 | 46.94691 | 46.50065 | 32895 ft | 446 kts | 121° |
| 2026-05-06 16:51 | 46.91342 | 46.57706 | 32895 ft | 446 kts | 121° |
| 2026-05-06 16:52 | 46.88016 | 46.65301 | 32899 ft | 446 kts | 121° |
| 2026-05-06 16:52 | 46.84649 | 46.72960 | 32958 ft | 447 kts | 121° |
| 2026-05-06 16:53 | 46.81269 | 46.80627 | 33116 ft | 448 kts | 121° |
| 2026-05-06 16:53 | 46.77910 | 46.88221 | 33276 ft | 448 kts | 121° |
| 2026-05-06 16:54 | 46.74519 | 46.95881 | 33445 ft | 449 kts | 121° |
| 2026-05-06 16:54 | 46.71131 | 47.03513 | 33606 ft | 449 kts | 121° |
| 2026-05-06 16:55 | 46.67736 | 47.11182 | 33845 ft | 449 kts | 121° |
| 2026-05-06 16:55 | 46.64407 | 47.18845 | 33910 ft | 449 kts | 121° |
| 2026-05-06 16:56 | 46.61050 | 47.26573 | 33907 ft | 450 kts | 121° |
| 2026-05-06 16:56 | 46.57708 | 47.34225 | 33908 ft | 450 kts | 121° |
| 2026-05-06 16:57 | 46.54331 | 47.41921 | 33912 ft | 451 kts | 122° |
| 2026-05-06 16:57 | 46.50949 | 47.49597 | 33912 ft | 451 kts | 122° |
| 2026-05-06 16:58 | 46.47579 | 47.57231 | 33909 ft | 451 kts | 122° |
| 2026-05-06 16:58 | 46.44177 | 47.64914 | 33909 ft | 451 kts | 122° |
| 2026-05-06 16:59 | 46.40790 | 47.72541 | 33913 ft | 451 kts | 122° |
| 2026-05-06 16:59 | 46.37390 | 47.80195 | 33912 ft | 451 kts | 122° |
| 2026-05-06 17:00 | 46.33977 | 47.87843 | 33892 ft | 452 kts | 122° |
| 2026-05-06 17:00 | 46.30566 | 47.95451 | 33892 ft | 451 kts | 123° |
| 2026-05-06 17:01 | 46.27810 | 48.03540 | 33896 ft | 451 kts | 107° |
| 2026-05-06 17:01 | 46.26393 | 48.12363 | 33893 ft | 451 kts | 102° |
| 2026-05-06 17:02 | 46.25033 | 48.21211 | 33895 ft | 451 kts | 103° |
| 2026-05-06 17:02 | 46.23663 | 48.30059 | 33893 ft | 451 kts | 103° |
| 2026-05-06 17:03 | 46.22294 | 48.38927 | 33895 ft | 451 kts | 103° |
| 2026-05-06 17:03 | 46.21371 | 48.43264 | 33891 ft | 450 kts | 115° |
| 2026-05-06 17:03 | 46.19758 | 48.47051 | 33890 ft | 450 kts | 130° |
| 2026-05-06 17:03 | 46.17481 | 48.50115 | 33894 ft | 450 kts | 146° |
| 2026-05-06 17:04 | 46.14709 | 48.52179 | 33892 ft | 450 kts | 161° |
| 2026-05-06 17:04 | 46.11643 | 48.53095 | 33890 ft | 449 kts | 176° |
| 2026-05-06 17:04 | 46.08533 | 48.52798 | 33895 ft | 449 kts | 191° |
| 2026-05-06 17:04 | 46.05576 | 48.51306 | 33892 ft | 453 kts | 207° |
| 2026-05-06 17:05 | 46.02987 | 48.48704 | 33894 ft | 456 kts | 223° |
| 2026-05-06 17:05 | 45.99047 | 48.41524 | 33900 ft | 459 kts | 232° |
| 2026-05-06 17:06 | 45.95295 | 48.34139 | 33904 ft | 460 kts | 233° |
| 2026-05-06 17:06 | 45.91500 | 48.26705 | 33903 ft | 460 kts | 232° |
| 2026-05-06 17:07 | 45.87708 | 48.19320 | 34009 ft | 458 kts | 232° |
| 2026-05-06 17:07 | 45.85832 | 48.15677 | 34289 ft | 458 kts | 232° |
| 2026-05-06 17:07 | 45.83936 | 48.12000 | 34636 ft | 456 kts | 232° |
| 2026-05-06 17:07 | 45.82052 | 48.08349 | 34988 ft | 454 kts | 233° |
| 2026-05-06 17:08 | 45.80175 | 48.04717 | 35345 ft | 452 kts | 233° |
| 2026-05-06 17:08 | 45.78309 | 48.01107 | 35721 ft | 450 kts | 232° |
| 2026-05-06 17:08 | 45.76448 | 47.97507 | 35885 ft | 450 kts | 233° |
| 2026-05-06 17:09 | 45.72724 | 47.90323 | 35928 ft | 449 kts | 233° |
| 2026-05-06 17:09 | 45.68994 | 47.83149 | 35926 ft | 449 kts | 232° |
| 2026-05-06 17:10 | 45.65264 | 47.75997 | 35928 ft | 448 kts | 232° |
| 2026-05-06 17:10 | 45.61526 | 47.68847 | 35930 ft | 449 kts | 232° |
| 2026-05-06 17:11 | 45.57797 | 47.61713 | 35934 ft | 449 kts | 233° |
| 2026-05-06 17:11 | 45.54050 | 47.54569 | 35937 ft | 450 kts | 232° |
| 2026-05-06 17:12 | 45.50300 | 47.47449 | 35944 ft | 449 kts | 232° |
| 2026-05-06 17:12 | 45.46535 | 47.40322 | 35941 ft | 450 kts | 232° |
| 2026-05-06 17:13 | 45.42773 | 47.33220 | 35945 ft | 449 kts | 233° |
| 2026-05-06 17:13 | 45.39024 | 47.26151 | 35944 ft | 450 kts | 232° |
| 2026-05-06 17:14 | 45.35254 | 47.19055 | 35945 ft | 449 kts | 232° |
| 2026-05-06 17:14 | 45.31475 | 47.11957 | 35944 ft | 450 kts | 232° |
| 2026-05-06 17:15 | 45.27695 | 47.04883 | 35950 ft | 450 kts | 232° |
| 2026-05-06 17:15 | 45.23898 | 46.97810 | 35949 ft | 450 kts | 232° |
| 2026-05-06 17:16 | 45.20110 | 46.90753 | 35953 ft | 450 kts | 232° |
| 2026-05-06 17:16 | 45.16304 | 46.83690 | 35955 ft | 450 kts | 232° |
| 2026-05-06 17:17 | 45.12492 | 46.76653 | 35960 ft | 450 kts | 232° |
| 2026-05-06 17:17 | 45.08681 | 46.69609 | 35961 ft | 451 kts | 232° |
| 2026-05-06 17:18 | 45.04870 | 46.62575 | 35966 ft | 450 kts | 232° |
| 2026-05-06 17:18 | 45.01046 | 46.55550 | 35963 ft | 451 kts | 232° |
| 2026-05-06 17:19 | 44.97213 | 46.48522 | 35974 ft | 452 kts | 232° |
| 2026-05-06 17:19 | 44.93378 | 46.41498 | 35975 ft | 452 kts | 232° |
| 2026-05-06 17:20 | 44.89540 | 46.34484 | 35975 ft | 452 kts | 232° |
| 2026-05-06 17:20 | 44.85686 | 46.27476 | 35977 ft | 452 kts | 232° |
| 2026-05-06 17:21 | 44.81856 | 46.20519 | 35984 ft | 452 kts | 232° |
| 2026-05-06 17:21 | 44.77996 | 46.13519 | 35984 ft | 452 kts | 232° |
| 2026-05-06 17:22 | 44.74131 | 46.06538 | 35987 ft | 452 kts | 232° |
| 2026-05-06 17:22 | 44.70255 | 45.99567 | 35988 ft | 452 kts | 232° |
| 2026-05-06 17:23 | 44.66398 | 45.92602 | 35988 ft | 451 kts | 232° |
| 2026-05-06 17:23 | 44.62528 | 45.85650 | 35994 ft | 452 kts | 232° |
| 2026-05-06 17:24 | 44.58652 | 45.78718 | 35997 ft | 451 kts | 232° |
| 2026-05-06 17:24 | 44.54770 | 45.71792 | 35997 ft | 452 kts | 231° |
| 2026-05-06 17:25 | 44.50885 | 45.64881 | 36000 ft | 451 kts | 231° |
| 2026-05-06 17:25 | 44.47000 | 45.57968 | 36004 ft | 452 kts | 231° |
| 2026-05-06 17:26 | 44.43141 | 45.51113 | 36008 ft | 451 kts | 231° |
| 2026-05-06 17:26 | 44.39231 | 45.44194 | 36008 ft | 452 kts | 231° |
| 2026-05-06 17:27 | 44.35345 | 45.37337 | 36012 ft | 451 kts | 231° |
| 2026-05-06 17:27 | 44.31425 | 45.30434 | 36019 ft | 452 kts | 231° |
| 2026-05-06 17:28 | 44.27525 | 45.23586 | 36018 ft | 452 kts | 231° |
| 2026-05-06 17:28 | 44.23587 | 45.16700 | 36026 ft | 452 kts | 231° |
| 2026-05-06 17:29 | 44.19668 | 45.09846 | 36035 ft | 452 kts | 231° |
| 2026-05-06 17:29 | 44.15755 | 45.03011 | 36034 ft | 452 kts | 231° |
| 2026-05-06 17:30 | 44.11810 | 44.96151 | 36038 ft | 452 kts | 231° |
| 2026-05-06 17:30 | 44.07884 | 44.89338 | 36043 ft | 452 kts | 231° |
| 2026-05-06 17:31 | 44.03962 | 44.82556 | 36053 ft | 452 kts | 231° |
| 2026-05-06 17:31 | 44.00665 | 44.76872 | 36050 ft | 452 kts | 231° |
| 2026-05-06 17:32 | 43.96068 | 44.68946 | 36050 ft | 452 kts | 231° |
| 2026-05-06 17:32 | 43.92759 | 44.63239 | 36048 ft | 452 kts | 231° |
| 2026-05-06 17:33 | 43.88808 | 44.56449 | 36048 ft | 452 kts | 230° |
| 2026-05-06 17:33 | 43.84844 | 44.49685 | 36049 ft | 452 kts | 230° |
| 2026-05-06 17:34 | 43.80878 | 44.42917 | 36050 ft | 452 kts | 230° |
| 2026-05-06 17:34 | 43.76916 | 44.36151 | 36048 ft | 452 kts | 230° |
| 2026-05-06 17:35 | 43.72949 | 44.29406 | 36048 ft | 452 kts | 230° |
| 2026-05-06 17:35 | 43.68974 | 44.22668 | 36046 ft | 452 kts | 230° |
| 2026-05-06 17:36 | 43.65476 | 44.15549 | 36048 ft | 453 kts | 245° |
| 2026-05-06 17:36 | 43.64378 | 44.11482 | 36042 ft | 454 kts | 254° |
| 2026-05-06 17:36 | 43.63725 | 44.02839 | 36044 ft | 456 kts | 271° |
| 2026-05-06 17:37 | 43.64002 | 43.94096 | 36035 ft | 456 kts | 271° |
| 2026-05-06 17:37 | 43.64247 | 43.85356 | 36035 ft | 456 kts | 271° |
| 2026-05-06 17:38 | 43.64481 | 43.76606 | 36032 ft | 456 kts | 271° |
| 2026-05-06 17:38 | 43.64716 | 43.67858 | 36035 ft | 456 kts | 271° |
| 2026-05-06 17:39 | 43.64943 | 43.59107 | 36035 ft | 456 kts | 271° |
| 2026-05-06 17:39 | 43.65159 | 43.50367 | 36056 ft | 456 kts | 271° |
| 2026-05-06 17:40 | 43.65377 | 43.41611 | 36054 ft | 456 kts | 271° |
| 2026-05-06 17:40 | 43.65585 | 43.32849 | 36064 ft | 457 kts | 270° |
| 2026-05-06 17:41 | 43.65771 | 43.24080 | 36076 ft | 457 kts | 270° |
| 2026-05-06 17:41 | 43.65963 | 43.15297 | 36087 ft | 458 kts | 271° |
| 2026-05-06 17:42 | 43.66158 | 43.06510 | 36101 ft | 458 kts | 271° |
| 2026-05-06 17:42 | 43.66343 | 42.97721 | 36109 ft | 458 kts | 270° |
| 2026-05-06 17:43 | 43.66521 | 42.88929 | 36109 ft | 459 kts | 270° |
| 2026-05-06 17:43 | 43.66694 | 42.80107 | 36120 ft | 460 kts | 270° |
| 2026-05-06 17:44 | 43.66855 | 42.71339 | 36119 ft | 460 kts | 270° |
| 2026-05-06 17:44 | 43.67011 | 42.62509 | 36124 ft | 460 kts | 270° |
| 2026-05-06 17:45 | 43.67158 | 42.53678 | 36128 ft | 460 kts | 270° |
| 2026-05-06 17:45 | 43.67295 | 42.44834 | 36128 ft | 460 kts | 270° |
| 2026-05-06 17:46 | 43.67431 | 42.35960 | 36135 ft | 461 kts | 270° |
| 2026-05-06 17:46 | 43.67568 | 42.27160 | 36136 ft | 462 kts | 270° |
| 2026-05-06 17:47 | 43.67685 | 42.18247 | 36144 ft | 462 kts | 270° |
| 2026-05-06 17:47 | 43.67797 | 42.09390 | 36144 ft | 462 kts | 270° |
| 2026-05-06 17:48 | 43.67901 | 42.00539 | 36147 ft | 462 kts | 270° |
| 2026-05-06 17:48 | 43.67999 | 41.91639 | 36148 ft | 463 kts | 270° |
| 2026-05-06 17:49 | 43.68096 | 41.82762 | 36148 ft | 464 kts | 270° |
| 2026-05-06 17:49 | 43.68191 | 41.73858 | 36149 ft | 464 kts | 270° |
| 2026-05-06 17:50 | 43.68274 | 41.64919 | 36155 ft | 464 kts | 270° |
| 2026-05-06 17:50 | 43.68342 | 41.56061 | 36155 ft | 464 kts | 270° |
| 2026-05-06 17:51 | 43.68409 | 41.47129 | 36153 ft | 464 kts | 270° |
| 2026-05-06 17:51 | 43.68471 | 41.38228 | 36157 ft | 466 kts | 270° |
| 2026-05-06 17:52 | 43.68523 | 41.29242 | 36157 ft | 466 kts | 269° |
| 2026-05-06 17:52 | 43.68567 | 41.20313 | 36158 ft | 465 kts | 270° |
| 2026-05-06 17:53 | 43.68609 | 41.11410 | 36157 ft | 465 kts | 269° |
| 2026-05-06 17:53 | 43.68642 | 41.02442 | 36152 ft | 466 kts | 269° |
| 2026-05-06 17:54 | 43.68663 | 40.93478 | 36152 ft | 466 kts | 269° |
| 2026-05-06 17:54 | 43.68682 | 40.84530 | 36150 ft | 467 kts | 270° |
| 2026-05-06 17:55 | 43.68728 | 40.75588 | 36149 ft | 467 kts | 270° |
| 2026-05-06 17:55 | 43.68774 | 40.66589 | 35793 ft | 469 kts | 270° |
| 2026-05-06 17:56 | 43.68793 | 40.62055 | 34899 ft | 474 kts | 270° |
| 2026-05-06 17:56 | 43.68807 | 40.57468 | 34051 ft | 477 kts | 270° |
| 2026-05-06 17:56 | 43.68819 | 40.52908 | 33067 ft | 480 kts | 270° |
| 2026-05-06 17:56 | 43.68828 | 40.48277 | 32094 ft | 482 kts | 270° |
| 2026-05-06 17:57 | 43.68836 | 40.43611 | 31122 ft | 484 kts | 271° |
| 2026-05-06 17:57 | 43.68839 | 40.41636 | 30716 ft | 485 kts | 271° |
| 2026-05-06 17:57 | 43.68842 | 40.36973 | 29686 ft | 487 kts | 271° |
| 2026-05-06 17:57 | 43.68840 | 40.32284 | 28557 ft | 488 kts | 271° |
| 2026-05-06 17:58 | 43.68836 | 40.27578 | 27433 ft | 488 kts | 271° |
| 2026-05-06 17:58 | 43.68778 | 40.22882 | 26318 ft | 488 kts | 265° |
| 2026-05-06 17:58 | 43.68153 | 40.18327 | 25249 ft | 488 kts | 253° |
| 2026-05-06 17:58 | 43.66814 | 40.14019 | 24117 ft | 489 kts | 240° |
| 2026-05-06 17:59 | 43.64792 | 40.10253 | 23263 ft | 482 kts | 227° |
| 2026-05-06 17:59 | 43.62299 | 40.07215 | 22408 ft | 475 kts | 215° |
| 2026-05-06 17:59 | 43.59456 | 40.04970 | 21555 ft | 468 kts | 205° |
| 2026-05-06 17:59 | 43.56546 | 40.03124 | 20725 ft | 463 kts | 204° |
| 2026-05-06 18:00 | 43.53617 | 40.01287 | 19919 ft | 458 kts | 204° |
| 2026-05-06 18:00 | 43.50718 | 39.99485 | 19151 ft | 454 kts | 204° |
| 2026-05-06 18:00 | 43.47848 | 39.97703 | 18405 ft | 449 kts | 204° |
| 2026-05-06 18:00 | 43.45024 | 39.96030 | 17597 ft | 444 kts | 199° |
| 2026-05-06 18:01 | 43.42100 | 39.94684 | 16841 ft | 439 kts | 198° |
| 2026-05-06 18:01 | 43.39219 | 39.93369 | 16116 ft | 434 kts | 198° |
| 2026-05-06 18:01 | 43.36367 | 39.92068 | 15463 ft | 428 kts | 198° |
| 2026-05-06 18:01 | 43.33579 | 39.90798 | 15209 ft | 412 kts | 198° |
| 2026-05-06 18:02 | 43.30909 | 39.89584 | 15143 ft | 393 kts | 198° |
| 2026-05-06 18:02 | 43.28403 | 39.88444 | 15158 ft | 374 kts | 198° |
| 2026-05-06 18:02 | 43.25984 | 39.87345 | 15156 ft | 357 kts | 198° |
| 2026-05-06 18:02 | 43.23669 | 39.86295 | 15155 ft | 341 kts | 197° |
| 2026-05-06 18:03 | 43.21467 | 39.85298 | 15139 ft | 326 kts | 197° |
| 2026-05-06 18:03 | 43.19347 | 39.84342 | 14955 ft | 319 kts | 197° |
| 2026-05-06 18:03 | 43.17251 | 39.83396 | 14664 ft | 316 kts | 197° |
| 2026-05-06 18:03 | 43.15170 | 39.82453 | 14351 ft | 314 kts | 198° |
| 2026-05-06 18:04 | 43.13093 | 39.81508 | 14034 ft | 312 kts | 198° |
| 2026-05-06 18:04 | 43.11058 | 39.80584 | 13689 ft | 310 kts | 198° |
| 2026-05-06 18:04 | 43.09009 | 39.79659 | 13335 ft | 309 kts | 198° |
| 2026-05-06 18:04 | 43.06975 | 39.78743 | 12975 ft | 307 kts | 198° |
| 2026-05-06 18:05 | 43.04949 | 39.77834 | 12614 ft | 306 kts | 198° |
| 2026-05-06 18:05 | 43.02932 | 39.76890 | 12240 ft | 304 kts | 204° |
| 2026-05-06 18:05 | 43.01288 | 39.75153 | 11896 ft | 299 kts | 235° |
| 2026-05-06 18:05 | 43.00566 | 39.72581 | 11540 ft | 295 kts | 267° |
| 2026-05-06 18:06 | 43.00944 | 39.69884 | 11160 ft | 291 kts | 299° |
| 2026-05-06 18:06 | 43.02315 | 39.67896 | 10792 ft | 289 kts | 331° |
| 2026-05-06 18:06 | 43.04250 | 39.67245 | 10417 ft | 289 kts | 3° |
| 2026-05-06 18:06 | 43.06122 | 39.68076 | 10031 ft | 289 kts | 29° |
| 2026-05-06 18:07 | 43.07868 | 39.69489 | 9571 ft | 290 kts | 30° |
| 2026-05-06 18:07 | 43.09601 | 39.70901 | 9165 ft | 288 kts | 30° |
| 2026-05-06 18:07 | 43.11296 | 39.72285 | 8768 ft | 286 kts | 30° |
| 2026-05-06 18:07 | 43.13035 | 39.73583 | 8359 ft | 283 kts | 25° |
| 2026-05-06 18:08 | 43.14812 | 39.74723 | 7953 ft | 280 kts | 23° |
| 2026-05-06 18:08 | 43.16587 | 39.75813 | 7573 ft | 277 kts | 22° |
| 2026-05-06 18:08 | 43.18320 | 39.76859 | 7193 ft | 275 kts | 22° |
| 2026-05-06 18:08 | 43.20070 | 39.77913 | 6791 ft | 272 kts | 22° |
| 2026-05-06 18:09 | 43.21801 | 39.78963 | 6377 ft | 270 kts | 22° |
| 2026-05-06 18:09 | 43.23517 | 39.80009 | 5908 ft | 270 kts | 23° |
| 2026-05-06 18:09 | 43.25251 | 39.81071 | 5167 ft | 279 kts | 23° |
| 2026-05-06 18:09 | 43.27044 | 39.82173 | 4398 ft | 281 kts | 24° |
| 2026-05-06 18:10 | 43.28803 | 39.83305 | 3642 ft | 277 kts | 27° |
| 2026-05-06 18:10 | 43.30492 | 39.84543 | 2899 ft | 273 kts | 30° |
| 2026-05-06 18:10 | 43.32111 | 39.85805 | 2274 ft | 266 kts | 30° |
| 2026-05-06 18:10 | 43.33654 | 39.87034 | 2053 ft | 244 kts | 30° |
| 2026-05-06 18:11 | 43.35073 | 39.88155 | 1819 ft | 228 kts | 30° |
| 2026-05-06 18:11 | 43.35972 | 39.88846 | 1615 ft | 220 kts | 29° |
| 2026-05-06 18:11 | 43.37710 | 39.90161 | 1247 ft | 209 kts | 28° |
| 2026-05-06 18:11 | 43.38957 | 39.91098 | 1060 ft | 195 kts | 28° |
| 2026-05-06 18:12 | 43.40095 | 39.91951 | 905 ft | 178 kts | 28° |
| 2026-05-06 18:12 | 43.41156 | 39.92746 | 919 ft | 184 kts | 28° |
| 2026-05-06 18:12 | 43.42206 | 39.93900 | 1822 ft | 196 kts | 53° |
| 2026-05-06 18:12 | 43.42763 | 39.95558 | 2807 ft | 186 kts | 81° |
| 2026-05-06 18:13 | 43.42718 | 39.97270 | 3571 ft | 184 kts | 100° |
| 2026-05-06 18:13 | 43.42443 | 39.99101 | 3898 ft | 208 kts | 113° |
| 2026-05-06 18:13 | 43.41391 | 40.00539 | 4440 ft | 223 kts | 159° |
| 2026-05-06 18:13 | 43.39851 | 40.00660 | 5226 ft | 228 kts | 198° |
| 2026-05-06 18:14 | 43.38380 | 39.99780 | 5813 ft | 234 kts | 206° |
| 2026-05-06 18:14 | 43.36925 | 39.98814 | 5972 ft | 233 kts | 206° |
| 2026-05-06 18:14 | 43.35465 | 39.97841 | 6011 ft | 233 kts | 206° |
| 2026-05-06 18:14 | 43.33997 | 39.96869 | 6008 ft | 232 kts | 206° |
| 2026-05-06 18:15 | 43.32552 | 39.95918 | 6007 ft | 233 kts | 206° |
| 2026-05-06 18:15 | 43.31088 | 39.94957 | 6010 ft | 231 kts | 206° |
| 2026-05-06 18:15 | 43.29630 | 39.94003 | 6007 ft | 233 kts | 207° |
| 2026-05-06 18:15 | 43.28159 | 39.93044 | 6002 ft | 234 kts | 207° |
| 2026-05-06 18:16 | 43.26684 | 39.92084 | 6012 ft | 234 kts | 207° |
| 2026-05-06 18:16 | 43.25226 | 39.91137 | 6002 ft | 234 kts | 206° |
| 2026-05-06 18:16 | 43.23749 | 39.90180 | 6003 ft | 234 kts | 206° |
| 2026-05-06 18:16 | 43.22268 | 39.89225 | 6001 ft | 234 kts | 206° |
| 2026-05-06 18:17 | 43.20812 | 39.88283 | 6002 ft | 234 kts | 206° |
| 2026-05-06 18:17 | 43.19338 | 39.87326 | 6001 ft | 234 kts | 206° |
| 2026-05-06 18:17 | 43.17853 | 39.86363 | 5825 ft | 235 kts | 206° |
| 2026-05-06 18:17 | 43.16380 | 39.85410 | 5569 ft | 232 kts | 206° |
| 2026-05-06 18:18 | 43.14923 | 39.84471 | 5314 ft | 230 kts | 206° |
| 2026-05-06 18:18 | 43.13493 | 39.83548 | 5062 ft | 229 kts | 206° |
| 2026-05-06 18:18 | 43.12044 | 39.82612 | 4803 ft | 227 kts | 207° |
| 2026-05-06 18:18 | 43.10629 | 39.81700 | 4546 ft | 227 kts | 206° |
| 2026-05-06 18:19 | 43.09206 | 39.80781 | 4288 ft | 226 kts | 206° |
| 2026-05-06 18:19 | 43.07792 | 39.79869 | 4036 ft | 224 kts | 206° |
| 2026-05-06 18:19 | 43.06390 | 39.78957 | 3792 ft | 222 kts | 209° |
| 2026-05-06 18:19 | 43.05256 | 39.77571 | 3529 ft | 219 kts | 240° |
| 2026-05-06 18:20 | 43.04881 | 39.76306 | 3450 ft | 217 kts | 261° |
| 2026-05-06 18:20 | 43.04972 | 39.74264 | 3368 ft | 217 kts | 291° |
| 2026-05-06 18:20 | 43.05813 | 39.72589 | 3289 ft | 216 kts | 322° |
| 2026-05-06 18:20 | 43.07157 | 39.71734 | 3214 ft | 216 kts | 352° |
| 2026-05-06 18:21 | 43.08633 | 39.71932 | 3130 ft | 215 kts | 22° |
| 2026-05-06 18:21 | 43.09829 | 39.73139 | 3101 ft | 216 kts | 53° |
| 2026-05-06 18:21 | 43.10624 | 39.74862 | 3103 ft | 217 kts | 59° |
| 2026-05-06 18:21 | 43.11406 | 39.76639 | 3100 ft | 218 kts | 58° |
| 2026-05-06 18:22 | 43.12369 | 39.78213 | 3106 ft | 217 kts | 39° |
| 2026-05-06 18:22 | 43.13664 | 39.79266 | 3105 ft | 216 kts | 20° |
| 2026-05-06 18:22 | 43.15138 | 39.79719 | 3107 ft | 218 kts | 8° |
| 2026-05-06 18:22 | 43.16648 | 39.80024 | 3105 ft | 219 kts | 9° |
| 2026-05-06 18:23 | 43.18140 | 39.80332 | 3107 ft | 219 kts | 9° |
| 2026-05-06 18:23 | 43.19651 | 39.80644 | 3107 ft | 219 kts | 9° |
| 2026-05-06 18:23 | 43.21164 | 39.80959 | 3108 ft | 219 kts | 9° |
| 2026-05-06 18:23 | 43.22660 | 39.81273 | 3109 ft | 219 kts | 9° |
| 2026-05-06 18:24 | 43.24173 | 39.81590 | 3002 ft | 219 kts | 9° |
| 2026-05-06 18:24 | 43.25687 | 39.81905 | 2826 ft | 218 kts | 9° |
| 2026-05-06 18:24 | 43.27168 | 39.82236 | 2646 ft | 217 kts | 15° |
| 2026-05-06 18:24 | 43.28532 | 39.83102 | 2466 ft | 216 kts | 30° |
| 2026-05-06 18:25 | 43.29845 | 39.84122 | 2285 ft | 215 kts | 30° |
| 2026-05-06 18:25 | 43.31129 | 39.85126 | 2121 ft | 214 kts | 30° |
| 2026-05-06 18:25 | 43.32422 | 39.86160 | 2022 ft | 214 kts | 30° |
| 2026-05-06 18:25 | 43.33721 | 39.87168 | 1982 ft | 214 kts | 29° |
| 2026-05-06 18:26 | 43.35019 | 39.88147 | 1862 ft | 217 kts | 29° |
| 2026-05-06 18:26 | 43.36333 | 39.89131 | 1610 ft | 214 kts | 29° |
| 2026-05-06 18:26 | 43.37618 | 39.90093 | 1332 ft | 206 kts | 28° |
| 2026-05-06 18:26 | 43.38858 | 39.91023 | 1087 ft | 197 kts | 28° |
| 2026-05-06 18:27 | 43.40014 | 39.91890 | 827 ft | 180 kts | 28° |
| 2026-05-06 18:27 | 43.41042 | 39.92661 | 637 ft | 158 kts | 27° |
| 2026-05-06 18:27 | 43.41970 | 39.93360 | 331 ft | 149 kts | 28° |
| 2026-05-06 18:27 | 43.42854 | 39.94023 | 205 ft | 140 kts | 28° |
| 2026-05-06 18:28 | 43.43695 | 39.94655 | 66 ft | 135 kts | 27° |
| 2026-05-06 18:28 | 43.44400 | 39.95184 | 85 ft | 91 kts | 28° |
| 2026-05-06 18:28 | 43.44805 | 39.95487 | 89 ft | 41 kts | 28° |
| 2026-05-06 18:28 | 43.44938 | 39.95579 | 89 ft | 8 kts | 8° |
| 2026-05-06 18:29 | 43.44951 | 39.95578 | 92 ft | 5 kts | 354° |
| 2026-05-06 18:29 | 43.44985 | 39.95560 | 90 ft | 9 kts | 332° |
| 2026-05-06 18:29 | 43.45020 | 39.95537 | 91 ft | 7 kts | 335° |
| 2026-05-06 18:29 | 43.45030 | 39.95531 | 91 ft | 0 kts | 335° |
| 2026-05-06 18:31 | 43.45040 | 39.95524 | 91 ft | 4 kts | 332° |
| 2026-05-06 18:31 | 43.45057 | 39.95505 | 92 ft | 3 kts | 297° |
| 2026-05-06 18:31 | 43.45053 | 39.95450 | 91 ft | 9 kts | 248° |
| 2026-05-06 18:31 | 43.45015 | 39.95338 | 88 ft | 16 kts | 245° |
| 2026-05-06 18:32 | 43.44964 | 39.95191 | 87 ft | 16 kts | 245° |
| 2026-05-06 18:32 | 43.44914 | 39.95052 | 81 ft | 17 kts | 244° |
| 2026-05-06 18:32 | 43.44863 | 39.94902 | 68 ft | 18 kts | 245° |
| 2026-05-06 18:32 | 43.44808 | 39.94745 | 71 ft | 17 kts | 245° |
| 2026-05-06 18:33 | 43.44770 | 39.94632 | 66 ft | 12 kts | 245° |
| 2026-05-06 18:33 | 43.44733 | 39.94522 | 71 ft | 13 kts | 244° |
| 2026-05-06 18:33 | 43.44695 | 39.94413 | 71 ft | 7 kts | 245° |
| 2026-05-06 18:33 | 43.44697 | 39.94371 | 70 ft | 4 kts | 321° |
| 2026-05-06 18:34 | 43.44721 | 39.94357 | 71 ft | 3 kts | 336° |
| 2026-05-06 18:34 | 43.44753 | 39.94337 | 71 ft | 7 kts | 335° |
| 2026-05-06 18:34 | 43.44783 | 39.94317 | 71 ft | 3 kts | 335° |
| 2026-05-06 18:34 | 43.44794 | 39.94311 | 72 ft | 0 kts | 335° |